Udaipur Airport
VAUD : now visible

Airfield :











YOU CAN JOIN US ON...

 
LOGIN :

Register | Disclaimer

   EN    FR    IT 

 









Legend :    VFR   Marginal VFR   IFR   Intensive IFR   Very Intensive IFR
Visi :
Ceiling :
>= 8 km
>= 3000ft
5 to 8 km
1000 to 3000 ft
1500m to 5 km
500 to 1000 ft
800 to 1500m
200 to 500 ft
< 800m
< 200 ft
Symbols :   Thunderstorms  Fog  Heavy snow  Heavy precipitations  Wind > 20 kt







- Airport Elevation : 1684 ft
- IATA code : UDR


VAUD - Udaipur

CURRENT METAR :
  • 230400Z 17002KT 4000 HZ FEW100 31/26 Q1004 NOSIG

EXPIRED METARs :
  • 230330Z 00000KT 4000 HZ FEW100 30/26 Q1004 NOSIG
  • 230300Z 00000KT 4000 HZ FEW100 29/26 Q1004 NOSIG
  • 230200Z 14003KT 4000 HZ FEW030 SCT100 28/26 Q1004 NOSIG

TAF TAF VAUD
Valid from the 23 at 03:00 until the 23 at 12:00 UTC


230200Z 2303/2312 23008KT 5000 HZ SCT030 BKN100
TEMPO 2308/2312 27010KT 1500 TSRA SCT030 FEW035CB BKN100
VABF FIR / Asia



MET'MAP, your aeronautical weather chart ! - Copyright ORBIFLY December 2007 - Disclaimer

ORBIFLY MET'MAP TEAM :

Programming & Development : Alexandra Zaïnal
Concept & Development : Baudouin d'Aumeries
Co-Development & Prog : Marc-Olivier Méhu
Technical & hardware support : Manuel Goepfert

Contact : metmap@orbifly.com




SOURCES & CREDITS :

   NOAA       Earth
Advisory